Terminal Aerodrome Forecast
Issued by NWS Wakefield, VA

Home | Current Version | Previous Version | Text Only | Print | Product List | Glossary On
Versions: 1 2 3 4 5 6 7 8 9 10 11 12 13 14 15 16
000
FTUS41 KAKQ 191100
TAFORF
TAF
KORF 191130Z 1912/2012 02008KT P6SM -RA FEW030 SCT060 OVC100
     FM191400 05012KT P6SM -RA OVC025
     FM191800 06012G20KT P6SM BKN025 OVC040
     FM200200 04009KT P6SM OVC020=

USA.gov is the U.S. government's official web portal to all federal, state and local government web resources and services.